Decoded Metar for KGFK (GRAND FORKS in ND, USA) (IATA:GFK) | Meteo·Mobile Aviation Weather
aviador You're here:

KGFK Decoded Metar

GRAND FORKS in ND, USA
Report Time2018-12-15 08:53:00
UTC Time2018-12-15 09:37:30
Flight Rules vfr VFR
Wind170° at 10 kt
W.Decomp.*RWY 17: 9.9 kt HW 1 kt LCW
RWY 09: 2.8 kt HW 9.6 kt RCW
W.Rank170° ranks 4
Current wind is above 170° avg. (9.9)
Visibility9999 m
Phenomena:N/A
Clouds:N/A
Expected CloudBase > 800 ft AGL from Temp-Dew spread
CeilingNone
Temp-4°C (ISA -18)
Dew Point-6°C (86% RH)
AAT-10.3°C
QNH1015 hPa
Density Alt-1,578 ft
Elevation623 ft
Report Wrong Elevation
Raw Report
KGFK 150853Z AUTO 17010KT 10SM CLR M04/M06 A2996 RMK AO2 SLP160
T10391061 56008=

Extra information for KGFK:More info

Metar Taf Metar & Taf Last 4 Metars F.Rules Stats Wind Profile Meteogram Temp Stats Airport Information Weather charts Add Link Nearby VenuesMetar ALERT Operation Metar Decoded Social comments

AIRNAV info for KGFK